Time;durP1;ratioP1;P1;durP2;ratioP2;P2;SDS_P1;SDS_P2;PMS_P1;PMS_P2;Temp;Humidity;BMP_temperature;BMP_pressure;BME280_temperature;BME280_humidity;BME280_pressure;Samples;Min_cycle;Max_cycle;Signal;HPM_P1;HPM_P2
2024/01/06 00:00:28;;;;;;;37.45;19.08;;;3.40;99.90;;;;;;5098519;28;20016;-42
2024/01/06 00:02:54;;;;;;;38.88;19.35;;;3.50;99.90;;;;;;5096105;28;20020;-41
2024/01/06 00:05:20;;;;;;;37.80;19.60;;;3.50;99.90;;;;;;5097896;28;20542;-41
2024/01/06 00:07:46;;;;;;;37.35;18.98;;;3.50;99.90;;;;;;5096806;28;20032;-41
2024/01/06 00:10:11;;;;;;;40.97;19.40;;;3.50;99.90;;;;;;5096631;28;20070;-40
2024/01/06 00:12:37;;;;;;;40.97;19.13;;;3.50;99.90;;;;;;5098431;28;20028;-40
2024/01/06 00:15:04;;;;;;;40.97;19.67;;;3.50;99.90;;;;;;5094918;28;20039;-42
2024/01/06 00:17:29;;;;;;;40.58;20.52;;;3.50;99.90;;;;;;5098785;28;20027;-40
2024/01/06 00:19:55;;;;;;;32.75;17.13;;;3.50;99.90;;;;;;5096282;28;20016;-40
2024/01/06 00:22:21;;;;;;;39.20;19.58;;;3.50;99.90;;;;;;5098285;28;20046;-41
2024/01/06 00:24:46;;;;;;;34.17;17.70;;;3.50;99.90;;;;;;5095866;28;20030;-41
2024/01/06 00:27:13;;;;;;;41.70;20.25;;;3.50;99.90;;;;;;5097388;28;20016;-41
2024/01/06 00:29:39;;;;;;;39.13;18.20;;;3.50;99.90;;;;;;5098108;28;20066;-41
2024/01/06 00:32:05;;;;;;;34.90;18.10;;;3.50;99.90;;;;;;5096530;28;20501;-41
2024/01/06 00:34:31;;;;;;;45.90;21.10;;;3.50;99.90;;;;;;5099075;28;20144;-41
2024/01/06 00:36:56;;;;;;;41.47;20.35;;;3.50;99.90;;;;;;5096274;28;20576;-40
2024/01/06 00:39:22;;;;;;;45.80;20.95;;;3.50;99.90;;;;;;5096941;28;20533;-40
2024/01/06 00:41:47;;;;;;;44.85;18.77;;;3.50;99.90;;;;;;5097007;28;20023;-41
2024/01/06 00:44:13;;;;;;;44.75;21.63;;;3.50;99.90;;;;;;5095677;28;20065;-41
2024/01/06 00:46:39;;;;;;;45.80;20.92;;;3.40;99.90;;;;;;5098486;28;20028;-40
2024/01/06 00:49:05;;;;;;;34.15;17.63;;;3.50;99.90;;;;;;5095808;28;20107;-41
2024/01/06 00:51:31;;;;;;;41.28;20.35;;;3.40;99.90;;;;;;5099783;28;20569;-41
2024/01/06 00:53:56;;;;;;;43.63;19.73;;;3.40;99.90;;;;;;5096627;28;20465;-40
2024/01/06 00:56:22;;;;;;;44.45;21.88;;;3.40;99.90;;;;;;5098522;28;20099;-40
2024/01/06 00:58:49;;;;;;;41.75;19.50;;;3.40;99.90;;;;;;5096766;28;20027;-40
2024/01/06 01:01:15;;;;;;;43.85;20.88;;;3.40;99.90;;;;;;5097268;28;20035;-41
2024/01/06 01:03:40;;;;;;;50.97;22.33;;;3.40;99.90;;;;;;5098341;28;20023;-41
2024/01/06 01:06:06;;;;;;;45.25;20.45;;;3.40;99.90;;;;;;5096466;28;20068;-40
2024/01/06 01:08:31;;;;;;;41.25;20.77;;;3.40;99.90;;;;;;5099108;28;20024;-41
2024/01/06 01:10:58;;;;;;;41.20;19.05;;;3.40;99.90;;;;;;5096761;28;20028;-42
2024/01/06 01:13:23;;;;;;;48.13;21.42;;;3.40;99.90;;;;;;5104012;28;20046;-42
2024/01/06 01:15:49;;;;;;;51.53;21.20;;;3.40;99.90;;;;;;5097767;28;20134;-42
2024/01/06 01:18:15;;;;;;;39.03;18.77;;;3.40;99.90;;;;;;5096937;28;20028;-40
2024/01/06 01:20:43;;;;;;;45.47;20.35;;;3.30;99.90;;;;;;5098048;28;20024;-41
2024/01/06 01:23:09;;;;;;;44.58;19.45;;;3.40;99.90;;;;;;5096809;28;20021;-42
2024/01/06 01:25:35;;;;;;;75.45;21.45;;;3.40;99.90;;;;;;5099374;28;20019;-45
2024/01/06 01:28:00;;;;;;;48.03;21.23;;;3.40;99.90;;;;;;5094737;28;20487;-41
2024/01/06 01:30:27;;;;;;;46.00;21.00;;;3.40;99.90;;;;;;5099226;28;20016;-40
2024/01/06 01:32:53;;;;;;;48.60;20.48;;;3.40;99.90;;;;;;5097315;28;20036;-40
2024/01/06 01:35:18;;;;;;;72.30;22.65;;;3.40;99.90;;;;;;5096764;28;20036;-40
2024/01/06 01:37:44;;;;;;;48.88;21.27;;;3.30;99.90;;;;;;5103031;28;20062;-41
2024/01/06 01:40:10;;;;;;;47.03;19.65;;;3.30;99.90;;;;;;5096822;28;20480;-41
2024/01/06 01:42:37;;;;;;;56.65;22.63;;;3.40;99.90;;;;;;5099651;28;20100;-41
2024/01/06 01:45:03;;;;;;;55.83;22.50;;;3.40;99.90;;;;;;5096468;28;20015;-41
2024/01/06 01:47:29;;;;;;;53.92;22.13;;;3.30;99.90;;;;;;5099350;28;20019;-42
2024/01/06 01:49:56;;;;;;;52.47;20.70;;;3.30;99.90;;;;;;5096988;28;20031;-41
2024/01/06 01:52:22;;;;;;;45.55;20.13;;;3.40;99.90;;;;;;5098715;28;20043;-42
2024/01/06 01:54:48;;;;;;;49.30;20.75;;;3.40;99.90;;;;;;5097890;28;20476;-41
2024/01/06 01:57:15;;;;;;;50.13;22.10;;;3.40;99.90;;;;;;5097260;28;20099;-40
2024/01/06 01:59:41;;;;;;;55.78;22.13;;;3.40;99.90;;;;;;5099117;28;20518;-41
2024/01/06 02:02:08;;;;;;;50.63;21.95;;;3.40;99.90;;;;;;5096436;28;20024;-41
2024/01/06 02:04:34;;;;;;;46.67;19.95;;;3.30;99.90;;;;;;5092782;28;20409;-40
2024/01/06 02:07:00;;;;;;;48.50;21.35;;;3.40;99.90;;;;;;5092031;28;20020;-41
2024/01/06 02:09:29;;;;;;;55.22;24.40;;;3.30;99.90;;;;;;5098876;28;20508;-41
2024/01/06 02:11:58;;;;;;;55.63;24.17;;;3.30;99.90;;;;;;5093461;28;20023;-42
2024/01/06 02:14:23;;;;;;;57.47;21.85;;;3.30;99.90;;;;;;5098966;28;20067;-41
2024/01/06 02:16:49;;;;;;;47.88;22.23;;;3.30;99.90;;;;;;5102800;28;20078;-41
2024/01/06 02:19:16;;;;;;;53.00;23.10;;;3.30;99.90;;;;;;5097573;28;20336;-41
2024/01/06 02:21:43;;;;;;;51.72;21.52;;;3.30;99.90;;;;;;5099138;28;20024;-42
2024/01/06 02:24:09;;;;;;;55.17;24.42;;;3.30;99.90;;;;;;5096732;28;20215;-40
2024/01/06 02:26:35;;;;;;;52.45;23.67;;;3.30;99.90;;;;;;5099897;28;20032;-42
2024/01/06 02:29:01;;;;;;;54.40;24.48;;;3.30;99.90;;;;;;5096496;28;20039;-41
2024/01/06 02:31:27;;;;;;;55.65;25.02;;;3.30;99.90;;;;;;5099742;28;20558;-40
2024/01/06 02:33:53;;;;;;;49.15;22.15;;;3.30;99.90;;;;;;5101841;28;20037;-42
2024/01/06 02:36:18;;;;;;;52.60;22.75;;;3.20;99.90;;;;;;5098795;28;20020;-42
2024/01/06 02:38:44;;;;;;;53.85;22.38;;;3.30;99.90;;;;;;5103407;28;20036;-42
2024/01/06 02:41:10;;;;;;;52.78;24.52;;;3.30;99.90;;;;;;5101565;28;20024;-41
2024/01/06 02:43:35;;;;;;;57.40;23.83;;;3.30;99.90;;;;;;5104791;28;20389;-42
2024/01/06 02:46:01;;;;;;;55.08;23.20;;;3.40;99.90;;;;;;5100988;28;20039;-41
2024/01/06 02:48:29;;;;;;;49.10;23.02;;;3.40;99.90;;;;;;5103322;28;20051;-41
2024/01/06 02:50:55;;;;;;;56.38;25.00;;;3.40;99.90;;;;;;5102218;27;20050;-40
2024/01/06 02:53:21;;;;;;;48.88;20.90;;;3.30;99.90;;;;;;5103077;28;20052;-41
2024/01/06 02:55:46;;;;;;;54.25;22.33;;;3.30;99.90;;;;;;5103643;28;20527;-41
2024/01/06 02:58:12;;;;;;;53.20;23.13;;;3.30;99.90;;;;;;5101050;28;20031;-42
2024/01/06 03:00:37;;;;;;;47.83;21.02;;;3.30;99.90;;;;;;5104774;28;20498;-41
2024/01/06 03:03:03;;;;;;;51.75;22.70;;;3.30;99.90;;;;;;5101259;28;20037;-41
2024/01/06 03:05:29;;;;;;;58.42;23.38;;;3.30;99.90;;;;;;5103042;28;20020;-41
2024/01/06 03:07:54;;;;;;;52.72;22.98;;;3.30;99.90;;;;;;5102557;28;20038;-42
2024/01/06 03:10:20;;;;;;;55.35;22.38;;;3.30;99.90;;;;;;5101166;28;20158;-41
2024/01/06 03:12:46;;;;;;;55.25;23.75;;;3.30;99.90;;;;;;5099085;28;20027;-41
2024/01/06 03:15:11;;;;;;;52.03;22.80;;;3.30;99.90;;;;;;5101577;28;20103;-41
2024/01/06 03:17:37;;;;;;;54.78;22.98;;;3.30;99.90;;;;;;5104669;28;20044;-41
2024/01/06 03:20:04;;;;;;;53.13;23.63;;;3.30;99.90;;;;;;5101280;28;20028;-41
2024/01/06 03:22:29;;;;;;;52.75;24.23;;;3.30;99.90;;;;;;5104417;28;20046;-42
2024/01/06 03:24:55;;;;;;;54.75;23.83;;;3.30;99.90;;;;;;5102801;28;20055;-42
2024/01/06 03:27:22;;;;;;;54.83;22.42;;;3.30;99.90;;;;;;5103208;28;20020;-42
2024/01/06 03:29:47;;;;;;;51.60;20.98;;;3.30;99.90;;;;;;5103615;28;20124;-41
2024/01/06 03:32:13;;;;;;;50.75;22.50;;;3.30;99.90;;;;;;5100976;28;20688;-40
2024/01/06 03:34:40;;;;;;;53.33;23.98;;;3.30;99.90;;;;;;5105188;28;20028;-40
2024/01/06 03:37:06;;;;;;;56.83;22.60;;;3.30;99.90;;;;;;5101933;28;20020;-40
2024/01/06 03:39:31;;;;;;;49.40;22.38;;;3.40;99.90;;;;;;5104668;28;20023;-42
2024/01/06 03:41:57;;;;;;;59.03;22.23;;;3.30;99.90;;;;;;5102432;28;20388;-41
2024/01/06 03:44:22;;;;;;;51.20;23.35;;;3.40;99.90;;;;;;5103030;28;20036;-42
2024/01/06 03:46:48;;;;;;;54.28;22.08;;;3.30;99.90;;;;;;5103761;28;20024;-40
2024/01/06 03:49:13;;;;;;;50.03;22.25;;;3.30;99.90;;;;;;5101826;28;20037;-41
2024/01/06 03:51:39;;;;;;;51.35;22.05;;;3.30;99.90;;;;;;5104965;28;20545;-42
2024/01/06 03:54:05;;;;;;;46.03;20.67;;;3.30;99.90;;;;;;5100477;28;20024;-40
2024/01/06 03:56:30;;;;;;;51.33;22.48;;;3.30;99.90;;;;;;5104368;28;20016;-40
2024/01/06 03:58:56;;;;;;;48.63;21.13;;;3.30;99.90;;;;;;5102243;28;20024;-41
2024/01/06 04:01:21;;;;;;;50.10;20.95;;;3.30;99.90;;;;;;5097882;28;20352;-41
2024/01/06 04:03:47;;;;;;;43.53;19.90;;;3.30;99.90;;;;;;5107341;28;20059;-41
2024/01/06 04:06:13;;;;;;;49.85;19.92;;;3.30;99.90;;;;;;5101917;28;20020;-41
2024/01/06 04:08:40;;;;;;;49.83;20.45;;;3.30;99.90;;;;;;5104258;28;20488;-41
2024/01/06 04:11:06;;;;;;;55.55;21.60;;;3.30;99.90;;;;;;5101996;28;20024;-41
2024/01/06 04:13:32;;;;;;;44.65;20.58;;;3.30;99.90;;;;;;5104807;28;20270;-40
2024/01/06 04:15:57;;;;;;;57.47;24.15;;;3.30;99.90;;;;;;5102702;28;20110;-40
2024/01/06 04:18:23;;;;;;;52.58;23.23;;;3.30;99.90;;;;;;5102834;28;20500;-41
2024/01/06 04:20:49;;;;;;;57.15;22.30;;;3.30;99.90;;;;;;5104111;28;20027;-40
2024/01/06 04:23:14;;;;;;;55.10;21.85;;;3.30;99.90;;;;;;5096750;28;20077;-41
2024/01/06 04:25:40;;;;;;;60.80;24.40;;;3.30;99.90;;;;;;5104855;28;20511;-41
2024/01/06 04:28:05;;;;;;;56.90;24.52;;;3.30;99.90;;;;;;5101081;28;20154;-40
2024/01/06 04:30:31;;;;;;;63.03;26.08;;;3.40;99.90;;;;;;5104650;28;20043;-40
2024/01/06 04:32:57;;;;;;;53.50;22.70;;;3.40;99.90;;;;;;5103314;28;20099;-41
2024/01/06 04:35:23;;;;;;;57.30;23.63;;;3.40;99.90;;;;;;5103496;28;20239;-40
2024/01/06 04:37:49;;;;;;;71.25;27.23;;;3.40;99.90;;;;;;5102602;28;20035;-41
2024/01/06 04:40:15;;;;;;;62.88;26.80;;;3.40;99.90;;;;;;5102166;28;20031;-40
2024/01/06 04:42:40;;;;;;;59.45;25.35;;;3.30;99.90;;;;;;5104731;28;20247;-41
2024/01/06 04:45:07;;;;;;;63.03;25.58;;;3.30;99.90;;;;;;5102105;28;20054;-41
2024/01/06 04:47:32;;;;;;;60.30;24.55;;;3.30;99.90;;;;;;5099450;28;20069;-43
2024/01/06 04:49:58;;;;;;;76.10;29.02;;;3.40;99.90;;;;;;5102601;28;20016;-40
2024/01/06 04:52:23;;;;;;;67.15;26.13;;;3.40;99.90;;;;;;5103800;28;20501;-41
2024/01/06 04:54:49;;;;;;;68.32;26.25;;;3.40;99.90;;;;;;5103615;28;20039;-41
2024/01/06 04:57:15;;;;;;;67.85;26.83;;;3.40;99.90;;;;;;5101785;28;20086;-40
2024/01/06 04:59:41;;;;;;;68.20;26.98;;;3.40;99.90;;;;;;5104536;28;20103;-41
2024/01/06 05:02:07;;;;;;;62.17;26.60;;;3.40;99.90;;;;;;5101922;28;20103;-41
2024/01/06 05:04:33;;;;;;;64.72;25.27;;;3.40;99.90;;;;;;5104973;28;20026;-40
2024/01/06 05:06:59;;;;;;;55.80;24.67;;;3.40;99.90;;;;;;5103378;28;20023;-41
2024/01/06 05:09:27;;;;;;;67.40;25.65;;;3.40;99.90;;;;;;5103834;28;20444;-41
2024/01/06 05:11:53;;;;;;;61.53;24.60;;;3.40;99.90;;;;;;5104164;28;20042;-40
2024/01/06 05:14:18;;;;;;;57.50;24.25;;;3.40;99.90;;;;;;5097020;28;20020;-41
2024/01/06 05:16:44;;;;;;;62.83;25.77;;;3.40;99.90;;;;;;5104633;28;20555;-39
2024/01/06 05:19:10;;;;;;;59.92;23.15;;;3.40;99.90;;;;;;5101741;28;20031;-41
2024/01/06 05:21:36;;;;;;;56.33;24.15;;;3.40;99.90;;;;;;5104739;28;20429;-40
2024/01/06 05:24:03;;;;;;;59.22;23.90;;;3.40;99.90;;;;;;5102996;28;20016;-40
2024/01/06 05:26:28;;;;;;;57.10;25.08;;;3.40;99.90;;;;;;5103896;28;20054;-41
2024/01/06 05:28:54;;;;;;;64.10;26.73;;;3.40;99.90;;;;;;5102544;28;20391;-41
2024/01/06 05:31:19;;;;;;;60.25;24.25;;;3.30;99.90;;;;;;5102957;28;20024;-41
2024/01/06 05:33:45;;;;;;;61.78;25.15;;;3.40;99.90;;;;;;5104898;28;20019;-42
2024/01/06 05:36:11;;;;;;;63.75;26.27;;;3.40;99.90;;;;;;5101569;28;20492;-41
2024/01/06 05:38:37;;;;;;;67.30;27.50;;;3.40;99.90;;;;;;5098605;28;20047;-41
2024/01/06 05:41:02;;;;;;;65.72;26.15;;;3.40;99.90;;;;;;5102853;28;20031;-42
2024/01/06 05:43:29;;;;;;;55.85;22.77;;;3.40;99.90;;;;;;5098698;28;20112;-42
2024/01/06 05:45:55;;;;;;;64.10;25.25;;;3.40;99.90;;;;;;5104227;28;20468;-41
2024/01/06 05:48:20;;;;;;;57.78;25.40;;;3.40;99.90;;;;;;5101295;28;20052;-42
2024/01/06 05:50:46;;;;;;;61.78;24.70;;;3.40;99.90;;;;;;5105181;28;20051;-41
2024/01/06 05:53:14;;;;;;;56.40;24.45;;;3.40;99.90;;;;;;5102173;28;20036;-41
2024/01/06 05:55:39;;;;;;;50.72;22.40;;;3.40;99.90;;;;;;5087823;28;20028;-40
2024/01/06 05:58:05;;;;;;;50.92;20.40;;;3.30;99.90;;;;;;5089727;28;21107;-40
2024/01/06 06:00:31;;;;;;;49.53;21.55;;;3.40;99.90;;;;;;5091419;28;20396;-40
2024/01/06 06:02:57;;;;;;;52.53;22.58;;;3.40;99.90;;;;;;5089986;28;20059;-40
2024/01/06 06:05:23;;;;;;;48.75;21.85;;;3.40;99.90;;;;;;5097871;28;20362;-40
2024/01/06 06:07:48;;;;;;;46.35;19.75;;;3.40;99.90;;;;;;5100013;28;20080;-40
2024/01/06 06:10:16;;;;;;;50.13;20.58;;;3.30;99.90;;;;;;5097782;28;20028;-40
2024/01/06 06:12:41;;;;;;;39.67;19.23;;;3.40;99.90;;;;;;5105299;28;20052;-40
2024/01/06 06:15:07;;;;;;;43.83;19.10;;;3.40;99.90;;;;;;5103742;28;20445;-51
2024/01/06 06:17:34;;;;;;;45.35;19.50;;;3.40;99.90;;;;;;5104896;28;20468;-52
2024/01/06 06:19:59;;;;;;;46.95;20.02;;;3.30;99.90;;;;;;5103742;28;20020;-52
2024/01/06 06:22:30;;;;;;;53.05;20.58;;;3.40;99.90;;;;;;5103772;28;20023;-50
2024/01/06 06:25:05;;;;;;;40.97;19.63;;;3.30;99.90;;;;;;5104711;28;20076;-51
2024/01/06 06:27:30;;;;;;;42.17;18.50;;;3.30;99.90;;;;;;5094840;28;20061;-51
2024/01/06 06:29:56;;;;;;;48.40;19.35;;;3.30;99.90;;;;;;5096999;28;20047;-54
2024/01/06 06:32:22;;;;;;;47.35;21.02;;;3.40;99.90;;;;;;5096832;28;20509;-52
2024/01/06 06:34:47;;;;;;;44.53;20.17;;;3.40;99.90;;;;;;5093364;28;20032;-52
2024/01/06 06:37:13;;;;;;;49.42;20.08;;;3.40;99.90;;;;;;5089615;28;20021;-51
2024/01/06 06:39:38;;;;;;;49.10;19.10;;;3.40;99.90;;;;;;5089118;28;20519;-49
2024/01/06 06:42:04;;;;;;;44.03;19.55;;;3.30;99.90;;;;;;5089031;28;20485;-50
2024/01/06 06:44:30;;;;;;;44.50;20.55;;;3.30;99.90;;;;;;5089828;28;20452;-49
2024/01/06 06:46:56;;;;;;;47.53;19.80;;;3.30;99.90;;;;;;5089546;28;20099;-51
2024/01/06 06:49:22;;;;;;;51.97;23.45;;;3.30;99.90;;;;;;5086880;28;20492;-50
2024/01/06 06:51:48;;;;;;;52.70;21.73;;;3.30;99.90;;;;;;5089116;28;20032;-53
2024/01/06 06:54:15;;;;;;;58.22;22.35;;;3.30;99.90;;;;;;5089868;28;20101;-53
2024/01/06 06:56:44;;;;;;;53.42;22.83;;;3.30;99.90;;;;;;5089080;28;20095;-53
2024/01/06 06:59:10;;;;;;;54.47;21.70;;;3.30;99.90;;;;;;5089183;28;20016;-54
2024/01/06 07:01:36;;;;;;;58.15;22.98;;;3.30;99.90;;;;;;5099050;28;20103;-54
2024/01/06 07:04:02;;;;;;;66.10;26.33;;;3.30;99.90;;;;;;5103166;28;20019;-54
2024/01/06 07:06:29;;;;;;;72.90;27.05;;;3.30;99.90;;;;;;5104984;28;20373;-54
2024/01/06 07:08:55;;;;;;;70.60;24.90;;;3.30;99.90;;;;;;5105315;28;20046;-54
2024/01/06 07:11:21;;;;;;;60.83;25.35;;;3.20;99.90;;;;;;5104000;28;20026;-55
2024/01/06 07:13:47;;;;;;;68.93;28.48;;;3.20;99.90;;;;;;5105926;28;20012;-54
2024/01/06 07:16:12;;;;;;;74.18;26.92;;;3.20;99.90;;;;;;5104307;28;20045;-53
2024/01/06 07:18:38;;;;;;;73.88;28.15;;;3.20;99.90;;;;;;5106359;28;20023;-53
2024/01/06 07:21:07;;;;;;;64.78;27.23;;;3.20;99.90;;;;;;5108808;28;20016;-52
2024/01/06 07:23:32;;;;;;;61.45;24.70;;;3.20;99.90;;;;;;5109627;28;20222;-51
2024/01/06 07:25:58;;;;;;;65.68;25.92;;;3.20;99.90;;;;;;5108740;28;20035;-50
2024/01/06 07:28:24;;;;;;;63.63;25.85;;;3.20;99.90;;;;;;5106975;28;20024;-50
2024/01/06 07:30:50;;;;;;;67.00;27.85;;;3.20;99.90;;;;;;5109933;28;20245;-53
2024/01/06 07:33:15;;;;;;;63.60;25.95;;;3.20;99.90;;;;;;5108284;28;20708;-50
2024/01/06 07:35:44;;;;;;;65.53;25.15;;;3.10;99.90;;;;;;5109598;28;20098;-56
2024/01/06 07:38:10;;;;;;;58.67;23.83;;;3.10;99.90;;;;;;5107896;28;20034;-53
2024/01/06 07:40:36;;;;;;;68.63;27.10;;;3.10;99.90;;;;;;5108659;28;20024;-53
2024/01/06 07:43:02;;;;;;;63.70;26.42;;;3.10;99.90;;;;;;5109410;28;20052;-53
2024/01/06 07:45:27;;;;;;;69.82;25.83;;;3.10;99.90;;;;;;5101551;28;21262;-51
2024/01/06 07:47:53;;;;;;;66.78;27.45;;;3.10;99.90;;;;;;5092559;28;20096;-53
2024/01/06 07:50:19;;;;;;;70.40;26.73;;;3.10;99.90;;;;;;5096105;28;20024;-52
2024/01/06 07:52:44;;;;;;;66.30;26.38;;;3.10;99.90;;;;;;5094682;28;20205;-53
2024/01/06 07:55:10;;;;;;;70.07;25.50;;;3.10;99.90;;;;;;5094664;28;20134;-52
2024/01/06 07:57:35;;;;;;;68.07;26.65;;;3.10;99.90;;;;;;5095300;28;20110;-53
2024/01/06 08:00:03;;;;;;;59.92;27.13;;;3.10;99.90;;;;;;5093920;28;20112;-51
2024/01/06 08:02:28;;;;;;;67.30;27.98;;;3.00;99.90;;;;;;5108148;28;20032;-52
2024/01/06 08:04:55;;;;;;;63.67;25.02;;;3.00;99.90;;;;;;5106301;28;20020;-51
2024/01/06 08:07:21;;;;;;;64.28;25.80;;;3.00;99.90;;;;;;5099455;28;20027;-51
2024/01/06 08:09:47;;;;;;;61.83;25.27;;;3.00;99.90;;;;;;5096677;28;20512;-52
2024/01/06 08:12:13;;;;;;;56.70;25.27;;;3.00;99.90;;;;;;5108448;28;20019;-52
2024/01/06 08:14:38;;;;;;;65.60;26.15;;;3.10;99.90;;;;;;5101524;28;20035;-52
2024/01/06 08:17:04;;;;;;;63.25;25.83;;;3.10;99.90;;;;;;5094213;28;20550;-53
2024/01/06 08:19:32;;;;;;;60.50;23.90;;;3.10;99.90;;;;;;5093797;28;20028;-52
2024/01/06 08:21:57;;;;;;;56.35;24.70;;;3.00;99.90;;;;;;5095974;28;20508;-53
2024/01/06 08:24:24;;;;;;;58.83;23.27;;;3.10;99.90;;;;;;5096600;28;20031;-53
2024/01/06 08:26:50;;;;;;;57.03;23.42;;;3.10;99.90;;;;;;5089567;28;20014;-51
2024/01/06 08:29:16;;;;;;;68.55;27.13;;;3.00;99.90;;;;;;5099126;28;20032;-52
2024/01/06 08:31:42;;;;;;;57.92;22.52;;;3.00;99.90;;;;;;5101682;28;20215;-53
2024/01/06 08:34:08;;;;;;;59.65;23.88;;;3.00;99.90;;;;;;5106490;28;20491;-50
2024/01/06 08:36:34;;;;;;;58.88;23.25;;;3.10;99.90;;;;;;5100071;28;20099;-53
2024/01/06 08:39:00;;;;;;;61.63;23.77;;;3.10;99.90;;;;;;5109045;28;20023;-53
2024/01/06 08:41:26;;;;;;;53.85;23.42;;;3.10;99.90;;;;;;5108789;28;20065;-50
2024/01/06 08:43:51;;;;;;;57.70;23.92;;;3.10;99.90;;;;;;5109800;28;20015;-51
2024/01/06 08:46:17;;;;;;;57.20;25.13;;;3.10;99.90;;;;;;5105569;28;20103;-54
2024/01/06 08:48:43;;;;;;;55.35;23.20;;;3.10;99.90;;;;;;5094490;27;20103;-52
2024/01/06 08:51:08;;;;;;;53.70;22.42;;;3.10;99.90;;;;;;5090949;28;20043;-52
2024/01/06 08:53:34;;;;;;;59.42;24.75;;;3.10;99.90;;;;;;5095959;28;20142;-51
2024/01/06 08:56:00;;;;;;;52.17;23.23;;;3.00;99.90;;;;;;5093771;28;20043;-58
2024/01/06 08:58:25;;;;;;;63.97;26.00;;;3.00;99.90;;;;;;5095555;28;20020;-53
2024/01/06 09:00:53;;;;;;;64.15;25.63;;;3.00;99.90;;;;;;5094441;28;20477;-55
2024/01/06 09:03:24;;;;;;;62.22;26.80;;;2.90;99.90;;;;;;5107762;28;20047;-52
2024/01/06 09:05:52;;;;;;;66.95;26.48;;;2.90;99.90;;;;;;5110186;28;20011;-52
2024/01/06 09:08:17;;;;;;;65.95;26.70;;;2.90;99.90;;;;;;5107373;28;20049;-54
2024/01/06 09:10:43;;;;;;;70.90;29.67;;;2.90;99.90;;;;;;5109883;28;20051;-52
2024/01/06 09:13:08;;;;;;;71.75;30.77;;;2.90;99.90;;;;;;5109319;28;20536;-53
2024/01/06 09:15:34;;;;;;;65.68;26.83;;;2.90;99.90;;;;;;5108072;28;20100;-54
2024/01/06 09:18:00;;;;;;;68.68;28.52;;;2.90;99.90;;;;;;5107965;28;20020;-52
2024/01/06 09:20:27;;;;;;;75.85;30.20;;;2.90;99.90;;;;;;5106301;28;20564;-52
2024/01/06 09:22:52;;;;;;;71.45;29.15;;;2.90;99.90;;;;;;5108172;28;20496;-53
2024/01/06 09:25:18;;;;;;;73.57;27.73;;;2.80;99.90;;;;;;5107960;28;20098;-52
2024/01/06 09:27:44;;;;;;;69.50;26.95;;;2.90;99.90;;;;;;5108070;28;20434;-53
2024/01/06 09:30:10;;;;;;;71.38;28.98;;;2.90;99.90;;;;;;5108481;27;20460;-54
2024/01/06 09:32:36;;;;;;;76.82;28.42;;;2.90;99.90;;;;;;5087969;28;20024;-51
2024/01/06 09:35:03;;;;;;;70.28;28.17;;;3.00;99.90;;;;;;5089095;28;20397;-53
2024/01/06 09:37:29;;;;;;;69.43;27.95;;;2.90;99.90;;;;;;5088944;28;20038;-52
2024/01/06 09:39:54;;;;;;;68.22;28.30;;;2.90;99.90;;;;;;5089242;28;20476;-53
2024/01/06 09:42:20;;;;;;;64.57;27.13;;;2.90;99.90;;;;;;5088443;28;20108;-52
2024/01/06 09:44:46;;;;;;;63.05;26.00;;;2.90;99.90;;;;;;5089199;28;20030;-52
2024/01/06 09:47:12;;;;;;;63.45;24.65;;;2.90;99.90;;;;;;5089194;28;20701;-53
2024/01/06 09:49:41;;;;;;;61.58;25.20;;;2.90;99.90;;;;;;5088988;28;20381;-52
2024/01/06 09:52:17;;;;;;;59.50;23.55;;;2.90;99.90;;;;;;5089498;28;20430;-53
2024/01/06 09:54:54;;;;;;;63.30;26.77;;;2.90;99.90;;;;;;5089675;28;20397;-54
2024/01/06 09:57:21;;;;;;;58.38;23.83;;;2.90;99.90;;;;;;5090089;28;20016;-53
2024/01/06 09:59:47;;;;;;;56.45;24.73;;;2.90;99.90;;;;;;5089231;28;20107;-53
2024/01/06 10:02:16;;;;;;;58.85;25.17;;;2.90;99.90;;;;;;5089819;28;20051;-54
2024/01/06 10:04:44;;;;;;;60.72;26.70;;;2.90;99.90;;;;;;5089465;28;20362;-53
2024/01/06 10:07:12;;;;;;;64.70;26.10;;;2.90;99.90;;;;;;5089381;28;20020;-53
2024/01/06 10:09:38;;;;;;;61.90;25.98;;;2.90;99.90;;;;;;5081455;28;20383;-54
2024/01/06 10:12:04;;;;;;;68.32;26.73;;;2.90;99.90;;;;;;5089538;28;20020;-53
2024/01/06 10:14:30;;;;;;;67.47;28.42;;;2.90;99.90;;;;;;5089637;28;20445;-52
2024/01/06 10:16:56;;;;;;;67.97;26.13;;;2.90;99.90;;;;;;5087951;28;20114;-53
2024/01/06 10:19:23;;;;;;;67.63;28.88;;;2.90;99.90;;;;;;5090043;28;20105;-53
2024/01/06 10:21:49;;;;;;;74.30;29.35;;;2.90;99.90;;;;;;5089502;28;20065;-54
2024/01/06 10:24:18;;;;;;;67.70;27.70;;;2.90;99.90;;;;;;5089810;28;20024;-54
2024/01/06 10:26:45;;;;;;;80.40;31.23;;;2.80;99.90;;;;;;5089600;28;20513;-53
2024/01/06 10:29:12;;;;;;;74.90;29.60;;;2.80;99.90;;;;;;5097593;28;20103;-51
2024/01/06 10:31:38;;;;;;;78.13;31.63;;;2.80;99.90;;;;;;5082161;28;20016;-51
2024/01/06 10:34:06;;;;;;;77.20;30.67;;;2.70;99.90;;;;;;5090357;28;20042;-49
2024/01/06 10:36:31;;;;;;;76.68;30.30;;;2.80;99.90;;;;;;5090599;28;20020;-50
2024/01/06 10:38:57;;;;;;;71.47;29.13;;;2.70;99.90;;;;;;5089750;28;20079;-52
2024/01/06 10:41:24;;;;;;;79.55;31.90;;;2.70;99.90;;;;;;5090621;28;20028;-54
2024/01/06 10:43:51;;;;;;;72.60;30.65;;;2.70;99.90;;;;;;5089968;28;20575;-53
2024/01/06 10:46:19;;;;;;;86.18;32.72;;;2.80;99.90;;;;;;5090555;28;20477;-54
2024/01/06 10:48:46;;;;;;;83.55;31.30;;;2.70;99.90;;;;;;5089719;28;20402;-53
2024/01/06 10:51:13;;;;;;;78.85;31.73;;;2.70;99.90;;;;;;5090327;28;20016;-53
2024/01/06 10:53:41;;;;;;;78.65;30.10;;;2.70;99.90;;;;;;5091707;28;20015;-53
2024/01/06 10:56:13;;;;;;;77.85;31.38;;;2.70;99.90;;;;;;5094239;28;20027;-53
2024/01/06 10:58:50;;;;;;;74.68;31.10;;;2.70;99.90;;;;;;5093721;28;20407;-54
2024/01/06 11:01:20;;;;;;;80.60;30.25;;;2.70;99.90;;;;;;5095222;28;20504;-52
2024/01/06 11:03:48;;;;;;;83.07;31.95;;;2.70;99.90;;;;;;5092438;28;20027;-51
2024/01/06 11:06:14;;;;;;;82.10;31.92;;;2.70;99.90;;;;;;5094547;28;20083;-54
2024/01/06 11:09:01;;;;;;;85.65;32.17;;;2.70;99.90;;;;;;5093730;28;20023;-54
2024/01/06 11:11:28;;;;;;;91.10;33.03;;;2.70;99.90;;;;;;5095005;28;20042;-54
2024/01/06 11:14:24;;;;;;;88.22;33.55;;;2.70;99.90;;;;;;5091717;28;20424;-52
2024/01/06 11:16:50;;;;;;;80.97;30.60;;;2.70;99.90;;;;;;5088004;28;20477;-54
2024/01/06 11:19:34;;;;;;;73.60;28.92;;;2.70;99.90;;;;;;5094697;28;20103;-53
2024/01/06 11:22:31;;;;;;;73.10;30.08;;;2.70;99.90;;;;;;5093127;28;20024;-52
2024/01/06 11:25:04;;;;;;;73.78;28.65;;;2.70;99.90;;;;;;5094119;28;20020;-53
2024/01/06 11:27:31;;;;;;;65.53;25.02;;;2.70;99.90;;;;;;5094137;28;20023;-52
2024/01/06 11:30:05;;;;;;;61.63;25.65;;;2.70;99.90;;;;;;5093852;28;20008;-51
2024/01/06 11:32:38;;;;;;;64.13;24.13;;;2.70;99.90;;;;;;5095313;28;20030;-53
2024/01/06 11:35:12;;;;;;;65.95;25.08;;;2.80;99.90;;;;;;5094393;28;20044;-53
2024/01/06 11:37:54;;;;;;;61.70;26.70;;;2.80;99.90;;;;;;5093388;28;20038;-52
2024/01/06 11:40:20;;;;;;;64.22;24.30;;;2.70;99.90;;;;;;5095579;28;20031;-53
2024/01/06 11:42:58;;;;;;;58.25;24.55;;;2.70;99.90;;;;;;5094250;28;20024;-53
2024/01/06 11:45:27;;;;;;;57.05;24.73;;;2.60;99.90;;;;;;5095458;28;20039;-54
2024/01/06 11:48:03;;;;;;;54.70;24.05;;;2.60;99.90;;;;;;5094236;28;20424;-52
2024/01/06 11:50:32;;;;;;;57.55;22.65;;;2.70;99.90;;;;;;5095723;28;20071;-53
2024/01/06 11:52:59;;;;;;;55.38;24.20;;;2.70;99.90;;;;;;5094323;28;20024;-54
2024/01/06 11:55:27;;;;;;;60.80;23.77;;;2.60;99.90;;;;;;5093535;28;20020;-53
2024/01/06 11:57:54;;;;;;;55.75;24.20;;;2.60;99.90;;;;;;5093176;28;20103;-53
2024/01/06 12:00:20;;;;;;;62.05;25.55;;;2.60;99.90;;;;;;5093526;28;20048;-53
2024/01/06 12:02:45;;;;;;;53.33;23.15;;;2.60;99.90;;;;;;5092926;28;20054;-54
2024/01/06 12:05:18;;;;;;;56.25;22.67;;;2.60;99.90;;;;;;5093476;28;20261;-53
2024/01/06 12:08:00;;;;;;;62.03;25.13;;;2.60;99.90;;;;;;5094316;28;20020;-55
2024/01/06 12:10:27;;;;;;;59.78;23.63;;;2.60;99.90;;;;;;5095932;28;20029;-53
2024/01/06 12:13:00;;;;;;;59.05;24.35;;;2.60;99.90;;;;;;5094432;28;20024;-50
2024/01/06 12:15:31;;;;;;;64.13;24.92;;;2.60;99.90;;;;;;5095928;28;20103;-52
2024/01/06 12:17:57;;;;;;;62.25;27.13;;;2.60;99.90;;;;;;5093375;28;20062;-53
2024/01/06 12:20:24;;;;;;;61.03;25.63;;;2.60;99.90;;;;;;5095327;28;20024;-53
2024/01/06 12:22:53;;;;;;;64.25;26.67;;;2.60;99.90;;;;;;5094001;28;20036;-54
2024/01/06 12:25:23;;;;;;;59.92;25.52;;;2.60;99.90;;;;;;5096966;28;20107;-51
2024/01/06 12:27:50;;;;;;;58.97;24.08;;;2.60;99.90;;;;;;5095001;28;20013;-54
2024/01/06 12:30:21;;;;;;;53.63;24.33;;;2.60;99.90;;;;;;5092124;28;20021;-53
2024/01/06 12:32:49;;;;;;;58.30;23.65;;;2.60;99.90;;;;;;5091373;28;20023;-53